createdAt,value
2023-05-07T00:02:40.434Z,81.78
2023-05-07T00:08:40.854Z,81.42
2023-05-07T00:11:27.628Z,81.89
2023-05-07T00:14:14.018Z,82.17
2023-05-07T00:17:00.493Z,82.52
2023-05-07T00:19:46.775Z,82.32
2023-05-07T00:22:33.400Z,82.74
2023-05-07T00:25:27.758Z,83.29
2023-05-07T00:28:20.514Z,83.10
2023-05-07T00:34:25.545Z,82.53
2023-05-07T00:40:36.095Z,82.05
2023-05-07T00:43:29.595Z,82.00
2023-05-07T00:46:23.335Z,81.89
2023-05-07T00:49:18.484Z,82.14
2023-05-07T00:52:13.201Z,82.24
2023-05-07T00:55:31.492Z,81.74
2023-05-07T00:58:25.708Z,81.98
2023-05-07T01:01:17.911Z,81.48
2023-05-07T01:04:10.225Z,81.18
2023-05-07T01:07:03.256Z,81.01
2023-05-07T01:09:58.693Z,81.01
2023-05-07T01:12:52.242Z,80.87
2023-05-07T01:15:46.807Z,81.35
2023-05-07T01:18:39.146Z,81.22
2023-05-07T01:21:34.864Z,81.10
2023-05-07T01:24:31.129Z,81.07
2023-05-07T01:27:24.458Z,80.95
2023-05-07T01:30:18.967Z,81.13
2023-05-07T01:33:13.375Z,80.44
2023-05-07T01:36:08.187Z,80.49
2023-05-07T01:39:01.265Z,79.70
2023-05-07T01:41:55.639Z,80.27
2023-05-07T01:44:49.584Z,80.12
2023-05-07T01:47:42.470Z,80.33
2023-05-07T01:51:03.511Z,80.67
2023-05-07T01:53:56.348Z,80.81
2023-05-07T01:57:06.443Z,81.06
2023-05-07T01:59:57.525Z,80.74
2023-05-07T02:05:57.079Z,81.34
2023-05-07T02:08:56.283Z,80.90
2023-05-07T02:11:49.459Z,80.95
2023-05-07T02:15:11.426Z,81.11
2023-05-07T02:18:05.650Z,81.36
2023-05-07T02:21:12.279Z,81.53
2023-05-07T02:24:05.460Z,81.71
2023-05-07T02:26:58.289Z,82.25
2023-05-07T02:29:51.097Z,81.82
2023-05-07T02:32:45.477Z,82.51
2023-05-07T02:35:38.498Z,82.36
2023-05-07T02:38:30.975Z,82.34
2023-05-07T02:41:22.975Z,81.86
2023-05-07T02:44:15.321Z,82.15
2023-05-07T02:47:09.645Z,82.70
2023-05-07T02:50:04.541Z,82.46
2023-05-07T02:56:17.912Z,82.42
2023-05-07T02:59:10.053Z,82.94
2023-05-07T03:02:06.369Z,82.88
2023-05-07T03:08:12.872Z,82.43
2023-05-07T03:14:22.535Z,82.66
2023-05-07T03:17:15.095Z,83.07
2023-05-07T03:20:11.124Z,82.80
2023-05-07T03:23:04.092Z,83.21
2023-05-07T03:25:58.379Z,83.75
2023-05-07T03:28:51.207Z,83.35
2023-05-07T03:31:44.210Z,83.64
2023-05-07T03:34:37.374Z,83.43
2023-05-07T03:37:30.415Z,83.42
2023-05-07T03:40:27.527Z,83.27
2023-05-07T03:43:22.648Z,83.18
2023-05-07T03:46:23.511Z,83.50
2023-05-07T03:49:18.740Z,83.58
2023-05-07T03:52:11.050Z,83.78
2023-05-07T03:55:04.431Z,83.81
2023-05-07T03:57:59.796Z,83.74
2023-05-07T04:01:04.647Z,83.42
2023-05-07T04:03:58.309Z,84.27
2023-05-07T04:06:51.466Z,84.08
2023-05-07T04:09:44.361Z,84.01
2023-05-07T04:12:36.952Z,83.27
2023-05-07T04:15:31.044Z,83.03
2023-05-07T04:18:25.490Z,83.45
2023-05-07T04:21:18.578Z,83.43
2023-05-07T04:27:30.620Z,83.08
2023-05-07T04:30:23.228Z,82.97
2023-05-07T04:33:17.645Z,82.35
2023-05-07T04:36:12.398Z,82.58
2023-05-07T04:39:13.230Z,83.05
2023-05-07T04:42:09.711Z,82.48
2023-05-07T04:48:38.051Z,82.49
2023-05-07T04:51:49.705Z,82.50
2023-05-07T04:54:47.591Z,82.20
2023-05-07T04:57:42.255Z,81.70
2023-05-07T05:03:57.515Z,81.75
2023-05-07T05:09:58.918Z,81.50
2023-05-07T05:16:08.788Z,81.54
2023-05-07T05:19:01.484Z,80.89
2023-05-07T05:21:55.995Z,80.76
2023-05-07T05:24:49.019Z,80.73
2023-05-07T05:27:43.777Z,81.07
2023-05-07T05:30:37.030Z,79.94
2023-05-07T05:36:49.294Z,79.35
2023-05-07T05:42:47.462Z,77.59
2023-05-07T05:48:52.522Z,77.08
2023-05-07T05:51:45.439Z,76.32
2023-05-07T05:54:39.320Z,77.10
2023-05-07T05:57:32.803Z,76.92
2023-05-07T06:00:26.629Z,76.28
2023-05-07T06:03:26.934Z,75.38
2023-05-07T06:06:20.122Z,75.56
2023-05-07T06:09:13.558Z,76.24
2023-05-07T06:12:09.050Z,74.72
2023-05-07T06:15:02.333Z,73.85
2023-05-07T06:17:58.228Z,72.88
2023-05-07T06:20:51.160Z,71.64
2023-05-07T06:23:50.624Z,72.67
2023-05-07T06:26:43.208Z,73.16
2023-05-07T06:30:01.565Z,71.80
2023-05-07T06:32:54.220Z,71.50
2023-05-07T06:36:24.497Z,68.89
2023-05-07T06:39:22.363Z,68.54
2023-05-07T06:42:27.390Z,70.63
2023-05-07T06:45:26.075Z,69.99
2023-05-07T06:51:39.308Z,68.93
2023-05-07T06:54:34.271Z,69.54
2023-05-07T06:57:27.019Z,69.22
2023-05-07T07:00:21.468Z,68.47
2023-05-07T07:03:19.295Z,69.29
2023-05-07T07:06:13.385Z,69.31
2023-05-07T07:09:06.423Z,68.39
2023-05-07T07:15:08.890Z,67.94
2023-05-07T07:18:01.168Z,67.71
2023-05-07T07:20:53.894Z,67.72
2023-05-07T07:23:47.354Z,67.56
2023-05-07T07:30:14.834Z,66.40
2023-05-07T07:36:38.930Z,67.63
2023-05-07T07:39:40.147Z,66.89
2023-05-07T07:42:34.432Z,66.15
2023-05-07T07:45:29.941Z,65.58
2023-05-07T07:48:22.436Z,65.90
2023-05-07T07:51:15.094Z,63.62
2023-05-07T07:54:08.166Z,59.65
2023-05-07T07:57:02.412Z,60.49
2023-05-07T07:59:58.134Z,60.20
2023-05-07T08:02:52.817Z,61.96
2023-05-07T08:05:52.056Z,61.99
2023-05-07T08:08:45.048Z,63.01
2023-05-07T08:12:10.352Z,63.17
2023-05-07T08:15:04.339Z,62.20
2023-05-07T08:18:11.418Z,61.81
2023-05-07T08:21:08.681Z,61.90
2023-05-07T08:27:22.547Z,63.01
2023-05-07T08:30:16.288Z,62.83
2023-05-07T08:33:10.690Z,62.09
2023-05-07T08:36:04.780Z,61.22
2023-05-07T08:38:57.142Z,60.14
2023-05-07T08:42:18.547Z,59.14
2023-05-07T08:45:12.355Z,59.76
2023-05-07T08:48:17.364Z,60.50
2023-05-07T08:51:42.557Z,59.25
2023-05-07T08:54:38.907Z,58.19
2023-05-07T08:57:33.438Z,58.72
2023-05-07T09:00:26.335Z,57.74
2023-05-07T09:03:21.284Z,58.58
2023-05-07T09:06:17.497Z,56.17
2023-05-07T09:09:10.805Z,58.10
2023-05-07T09:12:06.069Z,59.19
2023-05-07T09:15:00.910Z,59.88
2023-05-07T09:17:55.346Z,57.67
2023-05-07T09:20:48.272Z,58.27
2023-05-07T09:23:43.596Z,58.82
2023-05-07T09:26:40.138Z,57.91
2023-05-07T09:32:47.975Z,55.70
2023-05-07T09:39:01.739Z,56.74
2023-05-07T09:41:55.578Z,58.14
2023-05-07T09:45:01.010Z,57.99
2023-05-07T09:48:00.483Z,58.55
2023-05-07T09:50:59.038Z,57.55
2023-05-07T09:53:54.442Z,56.40
2023-05-07T09:56:50.424Z,56.68
2023-05-07T09:59:45.701Z,56.16
2023-05-07T10:02:47.279Z,55.76
2023-05-07T10:05:42.052Z,54.48
2023-05-07T10:08:35.377Z,56.70
2023-05-07T10:11:29.947Z,55.49
2023-05-07T10:14:23.282Z,55.11
2023-05-07T10:20:31.918Z,54.85
2023-05-07T10:23:25.950Z,54.66
2023-05-07T10:26:23.974Z,56.34
2023-05-07T10:29:36.578Z,52.00
2023-05-07T10:32:39.683Z,51.68
2023-05-07T10:35:32.792Z,53.25
2023-05-07T10:38:21.565Z,52.88
2023-05-07T10:41:09.393Z,53.89
2023-05-07T10:44:09.622Z,53.00
2023-05-07T10:47:09.857Z,52.48
2023-05-07T10:50:23.530Z,53.63
2023-05-07T10:56:29.709Z,54.35
2023-05-07T11:03:05.952Z,53.11
2023-05-07T11:06:11.756Z,56.31
2023-05-07T11:13:01.613Z,58.15
2023-05-07T11:16:28.069Z,56.68
2023-05-07T11:19:51.700Z,56.94
2023-05-07T11:22:56.080Z,55.33
2023-05-07T11:26:13.000Z,55.48
2023-05-07T11:29:12.669Z,55.34
2023-05-07T11:32:06.945Z,53.83
2023-05-07T11:35:07.193Z,53.18
2023-05-07T11:38:01.787Z,53.58
2023-05-07T11:43:58.189Z,56.43
2023-05-07T11:46:51.736Z,57.73
2023-05-07T11:49:45.087Z,58.48
2023-05-07T11:52:37.803Z,54.02
2023-05-07T11:55:29.925Z,56.79
2023-05-07T12:02:00.024Z,59.87
2023-05-07T12:05:08.402Z,55.98
2023-05-07T12:08:00.233Z,56.41
2023-05-07T12:10:53.281Z,55.28
2023-05-07T12:13:46.707Z,55.64
2023-05-07T12:16:40.895Z,57.04
2023-05-07T12:23:03.399Z,58.14
2023-05-07T12:26:25.596Z,55.83
2023-05-07T12:29:19.128Z,54.33
2023-05-07T12:32:48.532Z,54.18
2023-05-07T12:35:43.416Z,51.78
2023-05-07T12:38:54.054Z,52.47
2023-05-07T12:41:57.037Z,53.29
2023-05-07T12:44:49.486Z,50.24
2023-05-07T12:47:45.834Z,50.92
2023-05-07T12:50:38.590Z,51.64
2023-05-07T12:53:33.022Z,47.24
2023-05-07T12:56:25.351Z,46.51
2023-05-07T12:59:19.712Z,50.68
2023-05-07T13:02:12.419Z,49.65
2023-05-07T13:05:07.946Z,49.14
2023-05-07T13:08:00.408Z,46.31
2023-05-07T13:10:53.966Z,45.34
2023-05-07T13:13:46.509Z,47.65
2023-05-07T13:16:40.569Z,45.25
2023-05-07T13:19:33.434Z,46.92
2023-05-07T13:22:26.231Z,46.52
2023-05-07T13:28:40.258Z,49.25
2023-05-07T13:31:34.764Z,50.41
2023-05-07T13:37:39.540Z,52.36
2023-05-07T13:40:32.356Z,48.54
2023-05-07T13:46:37.772Z,51.93
2023-05-07T13:52:51.383Z,54.44
2023-05-07T13:55:44.522Z,54.00
2023-05-07T13:58:42.294Z,54.86
2023-05-07T14:01:41.197Z,53.22
2023-05-07T14:04:34.535Z,53.14
2023-05-07T14:07:27.295Z,53.33
2023-05-07T14:10:21.761Z,53.62
2023-05-07T14:13:14.447Z,53.81
2023-05-07T14:16:07.775Z,53.31
2023-05-07T14:19:00.169Z,53.26
2023-05-07T14:21:52.442Z,52.88
2023-05-07T14:24:48.544Z,52.72
2023-05-07T14:27:46.691Z,54.50
2023-05-07T14:30:39.234Z,53.05
2023-05-07T14:33:32.163Z,53.27
2023-05-07T14:39:36.884Z,54.53
2023-05-07T14:42:29.185Z,55.13
2023-05-07T14:45:24.082Z,56.70
2023-05-07T14:48:16.363Z,58.00
2023-05-07T14:51:37.633Z,58.17
2023-05-07T14:54:30.596Z,56.17
2023-05-07T14:58:00.550Z,54.64
2023-05-07T15:00:54.876Z,54.08
2023-05-07T15:04:02.943Z,54.99
2023-05-07T15:06:55.090Z,53.73
2023-05-07T15:09:48.289Z,53.73
2023-05-07T15:12:39.962Z,55.45
2023-05-07T15:15:32.411Z,53.33
2023-05-07T15:18:26.831Z,52.96
2023-05-07T15:21:19.489Z,54.50
2023-05-07T15:24:12.466Z,53.95
2023-05-07T15:27:06.170Z,54.31
2023-05-07T15:29:58.215Z,54.46
2023-05-07T15:33:28.574Z,56.33
2023-05-07T15:36:23.043Z,55.01
2023-05-07T15:42:27.647Z,56.00
2023-05-07T15:45:20.323Z,56.29
2023-05-07T15:48:13.579Z,56.38
2023-05-07T15:51:08.687Z,56.91
2023-05-07T15:57:15.027Z,55.96
2023-05-07T16:00:09.587Z,57.32
2023-05-07T16:03:05.900Z,56.99
2023-05-07T16:06:00.565Z,58.39
2023-05-07T16:11:58.202Z,58.19
2023-05-07T16:18:09.366Z,57.17
2023-05-07T16:21:02.376Z,56.65
2023-05-07T16:23:55.228Z,58.28
2023-05-07T16:26:48.457Z,59.41
2023-05-07T16:29:41.239Z,57.52
2023-05-07T16:32:34.587Z,58.48
2023-05-07T16:35:59.235Z,59.01
2023-05-07T16:38:53.935Z,59.66
2023-05-07T16:41:48.597Z,59.96
2023-05-07T16:44:41.326Z,59.28
2023-05-07T16:47:34.389Z,59.08
2023-05-07T16:50:27.498Z,59.09
2023-05-07T16:53:20.756Z,59.29
2023-05-07T16:56:14.511Z,60.80
2023-05-07T17:02:14.232Z,61.18
2023-05-07T17:08:19.723Z,61.83
2023-05-07T17:14:29.994Z,62.66
2023-05-07T17:17:22.048Z,62.59
2023-05-07T17:20:15.282Z,62.33
2023-05-07T17:26:17.692Z,61.71
2023-05-07T17:32:29.386Z,62.28
2023-05-07T17:35:22.335Z,62.83
2023-05-07T17:38:15.866Z,62.61
2023-05-07T17:44:28.192Z,63.44
2023-05-07T17:47:20.144Z,62.72
2023-05-07T17:53:28.613Z,63.94
2023-05-07T17:56:21.614Z,64.11
2023-05-07T17:59:14.091Z,64.04
2023-05-07T18:05:18.760Z,64.79
2023-05-07T18:08:11.287Z,65.33
2023-05-07T18:14:17.538Z,66.83
2023-05-07T18:20:21.788Z,67.52
2023-05-07T18:23:14.440Z,67.80
2023-05-07T18:26:08.511Z,68.56
2023-05-07T18:29:01.145Z,69.16
2023-05-07T18:31:54.671Z,69.40
2023-05-07T18:34:47.428Z,70.56
2023-05-07T18:37:40.556Z,70.00
2023-05-07T18:40:33.268Z,70.75
2023-05-07T18:46:48.609Z,71.09
2023-05-07T18:52:52.570Z,72.19
2023-05-07T18:58:57.660Z,71.84
2023-05-07T19:01:50.583Z,72.19
2023-05-07T19:07:57.018Z,72.39
2023-05-07T19:10:49.497Z,72.70
2023-05-07T19:13:46.471Z,73.10
2023-05-07T19:16:39.461Z,73.08
2023-05-07T19:19:32.623Z,73.38
2023-05-07T19:22:25.290Z,73.88
2023-05-07T19:25:19.921Z,74.09
2023-05-07T19:31:26.947Z,75.27
2023-05-07T19:34:19.530Z,75.78
2023-05-07T19:37:12.242Z,76.09
2023-05-07T19:40:06.590Z,75.98
2023-05-07T19:46:09.579Z,76.12
2023-05-07T19:49:02.264Z,76.44
2023-05-07T19:52:07.064Z,76.60
2023-05-07T19:54:59.361Z,77.11
2023-05-07T20:01:39.907Z,77.73
2023-05-07T20:04:37.237Z,78.05
2023-05-07T20:11:00.018Z,79.29
2023-05-07T20:14:10.086Z,79.38
2023-05-07T20:17:00.571Z,79.49
2023-05-07T20:23:14.433Z,80.42
2023-05-07T20:29:16.168Z,80.34
2023-05-07T20:32:10.387Z,80.35
2023-05-07T20:35:03.269Z,79.99
2023-05-07T20:37:56.646Z,80.05
2023-05-07T20:40:49.425Z,80.27
2023-05-07T20:43:42.704Z,80.25
2023-05-07T20:46:36.536Z,80.15
2023-05-07T20:49:30.643Z,79.98
2023-05-07T20:52:22.980Z,79.54
2023-05-07T20:55:15.338Z,78.95
2023-05-07T20:58:08.326Z,78.72
2023-05-07T21:01:01.295Z,77.66
2023-05-07T21:03:54.521Z,77.17
2023-05-07T21:10:25.997Z,75.73
2023-05-07T21:13:35.672Z,75.91
2023-05-07T21:16:25.333Z,76.35
2023-05-07T21:19:18.567Z,75.89
2023-05-07T21:22:11.279Z,75.88
2023-05-07T21:25:04.702Z,75.70
2023-05-07T21:27:58.840Z,75.62
2023-05-07T21:30:53.021Z,75.77
2023-05-07T21:33:45.531Z,75.53
2023-05-07T21:36:38.697Z,75.58
2023-05-07T21:39:31.445Z,75.94
2023-05-07T21:42:24.173Z,75.66
2023-05-07T21:45:17.547Z,76.09
2023-05-07T21:48:10.630Z,75.81
2023-05-07T21:51:03.858Z,75.71
2023-05-07T21:53:56.459Z,75.92
2023-05-07T21:56:50.151Z,76.47
2023-05-07T21:59:43.732Z,76.00
2023-05-07T22:02:38.129Z,76.59
2023-05-07T22:05:30.388Z,76.59
2023-05-07T22:08:23.542Z,76.63
2023-05-07T22:11:16.446Z,76.76
2023-05-07T22:14:09.156Z,77.20
2023-05-07T22:17:01.427Z,77.21
2023-05-07T22:23:12.016Z,77.57
2023-05-07T22:26:11.003Z,77.67
2023-05-07T22:29:03.419Z,78.14
2023-05-07T22:31:56.501Z,77.77
2023-05-07T22:34:49.626Z,78.09
2023-05-07T22:37:42.387Z,78.11
2023-05-07T22:40:36.935Z,78.38
2023-05-07T22:43:29.442Z,78.09
2023-05-07T22:46:22.363Z,78.66
2023-05-07T22:49:15.647Z,78.38
2023-05-07T22:52:08.251Z,78.37
2023-05-07T22:55:00.261Z,78.41
2023-05-07T22:58:10.466Z,78.05
2023-05-07T23:01:02.216Z,78.17
2023-05-07T23:03:55.439Z,78.71
2023-05-07T23:10:00.677Z,79.42
2023-05-07T23:16:07.687Z,79.03
2023-05-07T23:19:00.220Z,79.22
2023-05-07T23:21:52.397Z,79.02
2023-05-07T23:28:06.480Z,80.58
2023-05-07T23:30:59.058Z,81.00
2023-05-07T23:37:05.546Z,80.97
2023-05-07T23:39:53.983Z,81.53
2023-05-07T23:42:40.153Z,81.35
2023-05-07T23:45:26.338Z,81.35
2023-05-07T23:48:12.372Z,82.06
2023-05-07T23:50:58.588Z,81.97
2023-05-07T23:53:46.211Z,82.53
2023-05-07T23:56:32.331Z,82.66
